Terminal Aerodrome Forecast
Issued by NWS

Home | Current Version | Previous Version | Text Only | Print | Product List | Glossary On
Versions: 1 2 3 4 5 6 7 8 9 10 11 12 13 14 15 16 17 18
000
FTUS42 KGSP 182339
TAFGMU
TAF
KGMU 182339Z 1900/1924 23003KT P6SM BKN060 OVC200
     FM190200 34004KT P6SM SCT060 BKN200
     FM191300 03005KT P6SM BKN200=

USA.gov is the U.S. government's official web portal to all federal, state and local government web resources and services.